Time;durP1;ratioP1;P1;durP2;ratioP2;P2;SDS_P1;SDS_P2;PMS_P1;PMS_P2;Temp;Humidity;BMP_temperature;BMP_pressure;BME280_temperature;BME280_humidity;BME280_pressure;Samples;Min_cycle;Max_cycle;Signal;HPM_P1;HPM_P2
2021/08/08 00:00:54;;;;;;;9.80;6.20;;;;;;;18.44;76.84;97657.14;125420;1100;22831;-80
2021/08/08 00:03:27;;;;;;;13.68;6.80;;;;;;;18.45;77.26;97653.23;125305;1100;26002;-80
2021/08/08 00:05:56;;;;;;;;;;;;;;;18.46;76.96;97652.92;125486;1100;22794;-80
2021/08/08 00:08:28;;;;;;;8.78;5.80;;;;;;;18.43;76.62;97653.55;125442;1100;21604;-80
2021/08/08 00:10:58;;;;;;;8.95;5.70;;;;;;;18.36;76.55;97648.52;125525;1100;22947;-80
2021/08/08 00:13:39;;;;;;;11.13;6.00;;;;;;;18.35;76.88;97660.66;125835;1099;26420;-80
2021/08/08 00:16:11;;;;;;;13.43;6.93;;;;;;;18.35;77.03;97652.38;125610;1098;22816;-80
2021/08/08 00:18:39;;;;;;;10.78;6.75;;;;;;;18.38;77.32;97651.77;125811;1099;24976;-80
2021/08/08 00:21:06;;;;;;;9.65;6.85;;;;;;;18.40;77.40;97646.73;125457;1100;22957;-80
2021/08/08 00:23:36;;;;;;;10.70;6.85;;;;;;;18.38;77.14;97643.49;125369;1099;22793;-80
2021/08/08 00:26:12;;;;;;;11.75;6.95;;;;;;;18.40;77.07;97643.98;125569;1100;22792;-80
2021/08/08 00:28:39;;;;;;;12.08;5.93;;;;;;;18.40;76.96;97632.16;125739;1100;23866;-80
2021/08/08 00:31:06;;;;;;;9.98;6.40;;;;;;;18.37;76.86;97635.53;125788;1100;22976;-80
2021/08/08 00:33:35;;;;;;;12.48;6.40;;;;;;;18.38;76.82;97643.49;125814;1100;22873;-80
2021/08/08 00:36:02;;;;;;;19.60;6.98;;;;;;;18.38;77.05;97631.66;125520;1100;23633;-80
2021/08/08 00:38:29;;;;;;;13.38;6.63;;;;;;;18.37;77.09;97639.09;125581;1100;22998;-80
2021/08/08 00:40:57;;;;;;;13.03;7.13;;;;;;;18.34;77.11;97625.97;125687;1099;22791;-80
2021/08/08 00:43:24;;;;;;;12.45;6.40;;;;;;;18.33;77.01;97626.28;125404;1100;22948;-80
2021/08/08 00:45:54;;;;;;;9.63;5.70;;;;;;;18.31;77.20;97620.24;125453;1100;22808;-80
2021/08/08 00:48:23;;;;;;;11.30;5.93;;;;;;;18.30;77.06;97621.39;125765;1099;27220;-80
2021/08/08 00:50:51;;;;;;;10.90;5.70;;;;;;;18.26;77.04;97618.45;125478;1100;22816;-80
2021/08/08 00:53:21;;;;;;;9.68;5.53;;;;;;;18.23;77.09;97613.56;125249;1099;22824;-80
2021/08/08 00:55:52;;;;;;;8.93;5.20;;;;;;;18.18;77.15;97617.29;125474;1100;22953;-80
2021/08/08 00:58:21;;;;;;;8.15;5.30;;;;;;;18.18;77.10;97616.45;125199;1100;22786;-79
2021/08/08 01:01:00;;;;;;;9.48;4.98;;;;;;;18.18;77.08;97616.45;125447;1100;27210;-79
2021/08/08 01:03:31;;;;;;;9.85;6.30;;;;;;;18.18;76.99;97627.48;125221;1100;22831;-80
2021/08/08 01:06:15;;;;;;;8.17;5.73;;;;;;;18.18;77.10;97613.70;125442;1100;26325;-79
2021/08/08 01:08:47;;;;;;;10.18;6.13;;;;;;;18.16;77.04;97614.02;125126;1100;24470;-79
2021/08/08 01:11:18;;;;;;;8.35;5.25;;;;;;;18.12;77.07;97615.78;125069;1098;22764;-79
2021/08/08 01:13:47;;;;;;;12.15;6.23;;;;;;;18.14;77.12;97623.73;125147;1100;22783;-80
2021/08/08 01:16:19;;;;;;;12.80;6.43;;;;;;;18.14;77.25;97609.95;125499;1099;22816;-79
2021/08/08 01:18:46;;;;;;;11.05;6.35;;;;;;;18.12;77.09;97610.27;125206;1100;22853;-82
2021/08/08 01:21:14;;;;;;;;;;;;;;;18.07;77.12;97604.89;125394;1100;22802;-79
2021/08/08 01:23:43;;;;;;;9.43;6.00;;;;;;;18.05;77.33;97598.08;125124;1100;21600;-79
2021/08/08 01:26:14;;;;;;;10.50;5.70;;;;;;;18.01;77.30;97595.14;125190;1100;27229;-79
2021/08/08 01:28:41;;;;;;;11.05;5.63;;;;;;;18.01;77.33;97592.39;125262;1100;22802;-81
2021/08/08 01:31:09;;;;;;;11.40;6.10;;;;;;;17.98;77.24;97588.30;125378;1100;27183;-81
2021/08/08 01:33:38;;;;;;;10.17;6.07;;;;;;;17.96;77.55;97592.52;125225;1100;24638;-81
2021/08/08 01:36:10;;;;;;;11.30;5.55;;;;;;;17.95;77.70;97593.63;125173;1100;22809;-81
2021/08/08 01:38:45;;;;;;;11.37;6.20;;;;;;;17.91;77.33;97592.64;125193;1099;22867;-81
2021/08/08 01:41:17;;;;;;;9.73;6.18;;;;;;;17.91;77.40;97609.97;125224;1099;22953;-79
2021/08/08 01:43:51;;;;;;;10.10;5.90;;;;;;;17.89;77.31;97606.72;125421;1099;22924;-81
2021/08/08 01:46:24;;;;;;;13.63;6.33;;;;;;;17.80;77.58;97614.09;125475;1100;22847;-81
2021/08/08 01:49:28;;;;;;;11.70;5.93;;;;;;;17.77;77.94;97615.52;125237;1100;24476;-81
2021/08/08 01:52:06;;;;;;;8.98;5.70;;;;;;;17.79;77.91;97610.50;125204;1100;22827;-79
2021/08/08 01:54:41;;;;;;;9.33;5.70;;;;;;;17.80;78.11;97601.13;125243;1098;23015;-79
2021/08/08 01:57:13;;;;;;;7.48;4.78;;;;;;;17.82;78.23;97598.06;125164;1100;22784;-81
2021/08/08 01:59:44;;;;;;;8.45;4.48;;;;;;;17.83;77.94;97585.92;125467;1100;22898;-81
2021/08/08 02:02:15;;;;;;;8.03;4.58;;;;;;;17.85;77.64;97583.67;125177;1100;22773;-81
2021/08/08 02:04:46;;;;;;;6.10;4.10;;;;;;;17.88;77.63;97585.00;125156;1100;22806;-81
2021/08/08 02:07:18;;;;;;;9.98;4.75;;;;;;;17.92;77.51;97584.06;125433;1100;27752;-81
2021/08/08 02:09:47;;;;;;;5.90;3.73;;;;;;;17.96;77.01;97584.25;125241;1100;27227;-81
2021/08/08 02:12:14;;;;;;;5.03;3.93;;;;;;;17.99;76.88;97581.67;125176;1100;22879;-81
2021/08/08 02:14:43;;;;;;;10.20;3.70;;;;;;;18.05;76.82;97587.06;125479;1099;22616;-81
2021/08/08 02:17:15;;;;;;;6.90;3.98;;;;;;;18.08;77.03;97592.75;125476;1099;25871;-81
2021/08/08 02:19:46;;;;;;;5.50;3.63;;;;;;;18.13;76.79;97587.11;125173;1100;22838;-81
2021/08/08 02:22:22;;;;;;;5.13;3.77;;;;;;;18.19;77.03;97585.83;125508;1100;22803;-81
2021/08/08 02:24:51;;;;;;;5.30;3.88;;;;;;;18.25;76.53;97588.45;125167;1100;27344;-81
2021/08/08 02:27:25;;;;;;;4.73;3.83;;;;;;;18.30;76.64;97582.80;125409;1100;22880;-81
2021/08/08 02:30:01;;;;;;;;;;;;;;;18.34;76.61;97597.57;125210;1100;22803;-81
2021/08/08 02:32:28;;;;;;;4.33;3.38;;;;;;;18.34;76.15;97600.33;125436;1100;21521;-81
2021/08/08 02:34:58;;;;;;;4.30;3.15;;;;;;;18.36;76.24;97593.38;125195;1100;22802;-81
2021/08/08 02:37:26;;;;;;;5.10;3.07;;;;;;;18.38;75.91;97588.36;125339;1100;22858;-81
2021/08/08 02:39:53;;;;;;;5.93;3.38;;;;;;;18.39;75.83;97591.92;125266;1098;22831;-81
2021/08/08 02:42:21;;;;;;;5.88;3.13;;;;;;;18.41;75.81;97603.44;125298;1100;25883;-81
2021/08/08 02:44:48;;;;;;;6.07;3.60;;;;;;;18.43;75.96;97600.37;125468;1100;22804;-81
2021/08/08 02:47:20;;;;;;;7.23;4.90;;;;;;;18.42;75.97;97613.34;125218;1098;22944;-81
2021/08/08 02:49:47;;;;;;;7.80;5.10;;;;;;;18.28;75.72;97607.92;125473;1098;22816;-79
2021/08/08 02:52:15;;;;;;;7.73;4.93;;;;;;;18.18;75.85;97619.21;125569;1100;26402;-81
2021/08/08 02:54:49;;;;;;;6.13;4.78;;;;;;;18.13;76.01;97622.93;125189;1100;22783;-79
2021/08/08 02:57:16;;;;;;;7.98;4.60;;;;;;;18.12;76.24;97618.53;125165;1100;23851;-79
2021/08/08 02:59:46;;;;;;;6.75;5.10;;;;;;;18.09;76.48;97627.42;125206;1100;24447;-80
2021/08/08 03:02:20;;;;;;;7.75;4.60;;;;;;;18.09;76.52;97637.64;125230;1100;22960;-80
2021/08/08 03:04:50;;;;;;;5.10;3.98;;;;;;;18.11;76.70;97632.63;125680;1099;22750;-80
2021/08/08 03:07:22;;;;;;;6.40;4.50;;;;;;;18.17;76.56;97642.41;125443;1099;22780;-80
2021/08/08 03:09:49;;;;;;;9.08;4.20;;;;;;;18.19;76.32;97643.70;125664;1100;25883;-79
2021/08/08 03:12:19;;;;;;;7.75;4.18;;;;;;;18.19;76.08;97640.95;125795;1100;25986;-80
2021/08/08 03:14:46;;;;;;;4.18;3.80;;;;;;;18.19;76.13;97640.95;125415;1100;22951;-80
2021/08/08 03:17:13;;;;;;;4.58;3.70;;;;;;;18.19;75.82;97640.95;125494;1099;22838;-79
2021/08/08 03:19:40;;;;;;;6.83;3.78;;;;;;;18.21;75.92;97657.98;125846;1100;22871;-80
2021/08/08 03:22:07;;;;;;;6.78;3.90;;;;;;;18.21;75.67;97651.66;125486;1100;22908;-79
2021/08/08 03:24:36;;;;;;;5.23;3.50;;;;;;;18.20;76.31;97652.77;125769;1098;27207;-80
2021/08/08 03:27:04;;;;;;;;;;;;;;;18.19;76.15;97648.41;125554;1098;22941;-80
2021/08/08 03:29:34;;;;;;;4.15;3.75;;;;;;;18.19;76.40;97659.43;125981;1100;21473;-80
2021/08/08 03:32:01;;;;;;;5.68;3.58;;;;;;;18.19;76.25;97657.48;125535;1099;22823;-80
2021/08/08 03:34:28;;;;;;;5.75;3.35;;;;;;;18.23;76.16;97671.45;125529;1099;22828;-80
2021/08/08 03:36:58;;;;;;;5.90;3.90;;;;;;;18.28;76.33;97670.52;125644;1100;22780;-80
2021/08/08 03:39:25;;;;;;;6.30;3.95;;;;;;;18.28;76.60;97682.34;125568;1098;28504;-80
2021/08/08 03:41:56;;;;;;;4.55;3.80;;;;;;;18.28;77.03;97687.05;125244;1100;26357;-80
2021/08/08 03:44:24;;;;;;;5.53;4.00;;;;;;;18.27;76.98;97699.99;125242;1100;22816;-80
2021/08/08 03:46:54;;;;;;;7.50;4.53;;;;;;;18.23;77.10;97709.22;125423;1100;23458;-80
2021/08/08 03:49:24;;;;;;;4.63;3.70;;;;;;;18.13;77.69;97710.27;125318;1100;22818;-80
2021/08/08 03:51:51;;;;;;;6.13;3.83;;;;;;;18.07;77.79;97720.61;125505;1100;22809;-79
2021/08/08 03:54:19;;;;;;;7.27;3.67;;;;;;;18.00;78.19;97750.54;125458;1100;24492;-79
2021/08/08 03:56:48;;;;;;;5.95;4.08;;;;;;;17.87;79.12;97752.22;125527;1100;23226;-79
2021/08/08 03:59:16;;;;;;;7.50;3.88;;;;;;;17.81;79.04;97747.90;125330;1100;24421;-79
2021/08/08 04:01:46;;;;;;;5.13;3.90;;;;;;;17.82;78.62;97755.86;125216;1100;26235;-80
2021/08/08 04:04:13;;;;;;;6.53;3.70;;;;;;;17.90;78.25;97751.60;125806;1100;22793;-81
2021/08/08 04:06:40;;;;;;;4.78;4.10;;;;;;;17.99;78.18;97766.27;125698;1100;22827;-81
2021/08/08 04:09:07;;;;;;;4.95;3.70;;;;;;;18.09;77.75;97772.66;125556;1100;22809;-81
2021/08/08 04:11:37;;;;;;;4.68;3.38;;;;;;;18.18;77.52;97768.86;125453;1098;22831;-81
2021/08/08 04:14:06;;;;;;;3.78;3.43;;;;;;;18.30;77.84;97764.72;125425;1100;22801;-81
2021/08/08 04:16:34;;;;;;;5.90;3.23;;;;;;;18.43;77.65;97776.81;125704;1100;22788;-81
2021/08/08 04:19:01;;;;;;;4.25;3.08;;;;;;;18.53;77.90;97779.32;125741;1098;22816;-81
2021/08/08 04:21:28;;;;;;;5.43;3.30;;;;;;;18.63;78.00;97781.83;125808;1099;22830;-81
2021/08/08 04:23:55;;;;;;;3.13;2.60;;;;;;;18.72;78.28;97790.16;125522;1099;26005;-81
2021/08/08 04:26:22;;;;;;;3.50;2.40;;;;;;;18.86;78.25;97792.88;125507;1098;22803;-81
2021/08/08 04:28:49;;;;;;;5.47;2.13;;;;;;;19.00;77.94;97804.64;125711;1100;22833;-79
2021/08/08 04:31:17;;;;;;;4.07;1.93;;;;;;;19.12;77.61;97813.14;125712;1099;26389;-81
2021/08/08 04:33:44;;;;;;;3.38;2.10;;;;;;;19.23;77.38;97821.13;125840;1098;22947;-81
2021/08/08 04:36:11;;;;;;;2.03;1.25;;;;;;;19.31;76.26;97825.88;125726;1100;24575;-81
2021/08/08 04:38:39;;;;;;;6.68;1.15;;;;;;;19.37;75.43;97830.14;125698;1098;23052;-81
2021/08/08 04:41:06;;;;;;;1.93;1.65;;;;;;;19.41;75.77;97836.66;125307;1100;22789;-79
2021/08/08 04:43:33;;;;;;;2.10;1.35;;;;;;;19.45;75.71;97847.88;125440;1098;22802;-81
2021/08/08 04:46:00;;;;;;;1.43;1.10;;;;;;;19.44;74.62;97846.23;125684;1100;22886;-80
2021/08/08 04:48:28;;;;;;;3.70;1.00;;;;;;;19.42;74.48;97849.31;125531;1099;22912;-79
2021/08/08 04:50:56;;;;;;;2.13;0.93;;;;;;;19.38;74.36;97859.38;125295;1100;24597;-79
2021/08/08 04:53:23;;;;;;;0.60;0.60;;;;;;;19.35;73.65;97860.84;125454;1098;22829;-81
2021/08/08 04:55:50;;;;;;;0.95;0.85;;;;;;;19.30;74.05;97863.73;125972;1100;23562;-79
2021/08/08 04:58:17;;;;;;;3.20;0.78;;;;;;;19.27;74.28;97863.55;125244;1100;26011;-79
2021/08/08 05:00:44;;;;;;;1.88;0.90;;;;;;;19.17;74.01;97859.09;125670;1100;22841;-79
2021/08/08 05:03:11;;;;;;;0.93;0.60;;;;;;;19.09;74.32;97871.73;125502;1100;26136;-79
2021/08/08 05:05:39;;;;;;;1.53;0.65;;;;;;;19.05;74.37;97878.18;125711;1098;22790;-79
2021/08/08 05:08:06;;;;;;;1.50;0.85;;;;;;;19.00;74.25;97900.38;125739;1100;22809;-79
2021/08/08 05:10:34;;;;;;;1.95;0.83;;;;;;;18.94;73.90;97897.75;125886;1099;22819;-80
2021/08/08 05:13:01;;;;;;;1.25;0.68;;;;;;;18.91;73.80;97897.56;125621;1098;22792;-79
2021/08/08 05:15:28;;;;;;;2.08;0.70;;;;;;;18.88;73.98;97893.50;125479;1100;27220;-80
2021/08/08 05:17:57;;;;;;;2.20;1.00;;;;;;;18.89;74.00;97906.18;125722;1100;22911;-79
2021/08/08 05:20:24;;;;;;;1.58;0.75;;;;;;;18.88;73.80;97904.53;125678;1100;25868;-79
2021/08/08 05:22:51;;;;;;;0.95;0.70;;;;;;;18.89;73.87;97919.97;125274;1098;22790;-80
2021/08/08 05:25:18;;;;;;;0.80;0.60;;;;;;;18.87;73.65;97927.72;125239;1100;28534;-79
2021/08/08 05:27:45;;;;;;;1.48;0.65;;;;;;;18.84;73.37;97925.61;125224;1100;22851;-79
2021/08/08 05:30:13;;;;;;;;;;;;;;;18.81;73.29;97941.94;125750;1099;22809;-79
2021/08/08 05:32:40;;;;;;;2.43;0.80;;;;;;;18.78;73.22;97948.88;125739;1098;21678;-79
2021/08/08 05:35:08;;;;;;;2.25;0.78;;;;;;;18.76;73.13;97943.67;125281;1098;22802;-79
2021/08/08 05:37:35;;;;;;;1.70;0.60;;;;;;;18.73;72.83;97949.83;125757;1100;23084;-79
2021/08/08 05:40:06;;;;;;;1.50;0.90;;;;;;;18.70;72.99;97947.69;125372;1099;22812;-79
2021/08/08 05:42:35;;;;;;;1.60;0.70;;;;;;;18.69;73.19;97948.00;125293;1098;23307;-79
2021/08/08 05:45:05;;;;;;;2.27;1.00;;;;;;;18.68;72.99;97955.47;125972;1098;22687;-79
2021/08/08 05:47:31;;;;;;;0.88;0.53;;;;;;;18.70;72.94;97950.45;125704;1099;22802;-80
2021/08/08 05:49:59;;;;;;;0.90;0.75;;;;;;;18.71;72.92;97965.85;125457;1100;22921;-80
2021/08/08 05:52:26;;;;;;;2.45;0.70;;;;;;;18.73;73.02;97971.06;125523;1100;26436;-79
2021/08/08 05:54:54;;;;;;;0.80;0.60;;;;;;;18.73;72.77;97969.14;125229;1100;22816;-79
2021/08/08 05:57:21;;;;;;;0.98;0.80;;;;;;;18.74;73.08;97962.48;125736;1100;22803;-79
2021/08/08 05:59:49;;;;;;;2.50;0.80;;;;;;;18.75;73.44;97966.05;125474;1100;22890;-80
2021/08/08 06:02:16;;;;;;;1.80;0.93;;;;;;;18.76;73.13;97984.24;125350;1100;26025;-80
2021/08/08 06:04:43;;;;;;;1.88;0.80;;;;;;;18.76;73.13;97981.48;125450;1100;22872;-80
2021/08/08 06:07:10;;;;;;;0.80;0.70;;;;;;;18.75;73.22;97994.47;125780;1098;22829;-80
2021/08/08 06:09:37;;;;;;;0.67;0.60;;;;;;;18.75;73.08;97999.15;125464;1100;22806;-80
2021/08/08 06:12:18;;;;;;;1.75;0.73;;;;;;;18.75;73.24;98007.42;125473;1098;22944;-79
2021/08/08 06:14:45;;;;;;;0.90;0.90;;;;;;;18.72;73.40;98000.59;125484;1100;22826;-80
2021/08/08 06:17:12;;;;;;;1.10;0.70;;;;;;;18.71;73.41;98003.66;125721;1100;22790;-80
2021/08/08 06:19:39;;;;;;;1.20;0.85;;;;;;;18.73;74.18;98002.24;125888;1099;26277;-80
2021/08/08 06:22:06;;;;;;;0.58;0.58;;;;;;;18.75;74.30;98016.54;125404;1100;23386;-80
2021/08/08 06:24:33;;;;;;;1.55;0.50;;;;;;;18.70;74.19;98030.44;125882;1099;22929;-80
2021/08/08 06:27:00;;;;;;;2.23;0.90;;;;;;;18.68;74.32;98040.13;125650;1099;22798;-80
2021/08/08 06:29:28;;;;;;;1.15;0.50;;;;;;;18.70;74.88;98048.94;125711;1099;22885;-80
2021/08/08 06:31:55;;;;;;;0.58;0.58;;;;;;;18.70;74.44;98054.45;125398;1100;22816;-80
2021/08/08 06:34:22;;;;;;;1.53;0.90;;;;;;;18.67;74.84;98069.66;125412;1098;24575;-80
2021/08/08 06:36:50;;;;;;;0.50;0.50;;;;;;;18.63;74.67;98070.58;125437;1100;22944;-80
2021/08/08 06:39:17;;;;;;;0.57;0.53;;;;;;;18.60;75.21;98077.53;125511;1100;25909;-80
2021/08/08 06:41:44;;;;;;;0.63;0.60;;;;;;;18.56;75.04;98074.58;125699;1100;26338;-80
2021/08/08 06:44:15;;;;;;;1.03;0.53;;;;;;;18.56;75.41;98076.53;125829;1100;22819;-80
2021/08/08 06:46:42;;;;;;;1.25;0.90;;;;;;;18.57;75.35;98073.47;125820;1099;23073;-80
2021/08/08 06:49:09;;;;;;;1.05;0.65;;;;;;;18.65;76.04;98084.90;125449;1100;22843;-79
2021/08/08 06:51:36;;;;;;;0.98;0.60;;;;;;;18.72;74.90;98088.87;125774;1100;22807;-80
2021/08/08 06:54:04;;;;;;;1.78;0.78;;;;;;;18.79;75.04;98092.03;125557;1100;22860;-80
2021/08/08 06:56:32;;;;;;;0.60;0.60;;;;;;;18.91;75.14;98096.23;125695;1100;22825;-79
2021/08/08 06:58:59;;;;;;;1.90;0.70;;;;;;;18.97;74.91;98095.81;125548;1098;22822;-80
2021/08/08 07:01:26;;;;;;;1.20;0.58;;;;;;;19.04;74.44;98098.16;125504;1100;22800;-80
2021/08/08 07:03:53;;;;;;;1.75;0.60;;;;;;;19.09;74.12;98114.61;125405;1100;22816;-80
2021/08/08 07:06:20;;;;;;;0.63;0.55;;;;;;;19.09;73.49;98109.09;125459;1100;24421;-80
2021/08/08 07:08:47;;;;;;;1.65;0.60;;;;;;;19.06;73.54;98108.89;125190;1100;22835;-80
2021/08/08 07:11:15;;;;;;;1.13;0.80;;;;;;;19.05;73.88;98108.09;125437;1100;22870;-80
2021/08/08 07:13:42;;;;;;;2.25;0.65;;;;;;;19.00;73.38;98112.88;125473;1099;22813;-80
2021/08/08 07:16:09;;;;;;;2.60;0.53;;;;;;;18.95;73.36;98117.39;125254;1098;24597;-80
2021/08/08 07:18:36;;;;;;;1.03;0.67;;;;;;;18.92;73.29;98122.70;125665;1100;22812;-80
2021/08/08 07:21:03;;;;;;;1.10;0.83;;;;;;;18.91;73.05;98129.34;125233;1100;22876;-80
2021/08/08 07:23:31;;;;;;;1.55;0.50;;;;;;;18.89;73.34;98120.55;125276;1100;22947;-80
2021/08/08 07:25:57;;;;;;;1.10;0.60;;;;;;;18.88;73.22;98121.70;125239;1099;22783;-80
2021/08/08 07:28:24;;;;;;;0.63;0.57;;;;;;;18.87;72.84;98123.62;125538;1100;23014;-80
2021/08/08 07:30:51;;;;;;;0.55;0.48;;;;;;;18.83;72.81;98125.37;125560;1100;22947;-80
2021/08/08 07:33:18;;;;;;;0.63;0.50;;;;;;;18.80;72.67;98125.94;125739;1100;22813;-80
2021/08/08 07:35:46;;;;;;;0.55;0.50;;;;;;;18.84;73.05;98132.53;125535;1098;22879;-80
2021/08/08 07:38:13;;;;;;;1.53;0.67;;;;;;;18.91;73.16;98129.34;125703;1099;22773;-82
2021/08/08 07:40:39;;;;;;;0.53;0.50;;;;;;;19.03;73.50;98115.83;125280;1100;27358;-83
2021/08/08 07:43:07;;;;;;;0.70;0.60;;;;;;;19.19;73.22;98116.31;125193;1099;22785;-81
2021/08/08 07:45:34;;;;;;;0.40;0.40;;;;;;;19.34;72.51;98118.73;125186;1100;22789;-80
2021/08/08 07:48:02;;;;;;;1.00;0.65;;;;;;;19.51;71.53;98120.01;125446;1100;22810;-80
2021/08/08 07:50:29;;;;;;;0.68;0.50;;;;;;;19.65;71.12;98117.20;125162;1099;22778;-80
2021/08/08 07:52:56;;;;;;;0.43;0.30;;;;;;;19.78;70.65;98115.53;125223;1098;22824;-81
2021/08/08 07:55:23;;;;;;;1.03;0.40;;;;;;;19.99;70.08;98111.15;125411;1100;22796;-80
2021/08/08 07:57:51;;;;;;;1.30;0.40;;;;;;;20.28;68.88;98113.41;125182;1099;22783;-80
2021/08/08 08:00:19;;;;;;;0.85;0.40;;;;;;;20.48;68.11;98100.16;125250;1098;24431;-80
2021/08/08 08:02:48;;;;;;;1.05;0.40;;;;;;;20.65;67.46;98102.23;125225;1100;22777;-80
2021/08/08 08:05:18;;;;;;;0.70;0.65;;;;;;;20.70;65.92;98112.31;125421;1100;22794;-81
2021/08/08 08:07:46;;;;;;;1.20;0.60;;;;;;;20.81;66.82;98114.48;125267;1100;22885;-80
2021/08/08 08:10:13;;;;;;;0.63;0.40;;;;;;;20.89;66.21;98128.66;125431;1099;22812;-80
2021/08/08 08:12:40;;;;;;;1.00;0.50;;;;;;;20.97;65.36;98123.16;125965;1100;24469;-81
2021/08/08 08:15:07;;;;;;;0.93;0.50;;;;;;;21.09;65.79;98124.47;125711;1100;22838;-80
2021/08/08 08:17:34;;;;;;;2.35;0.80;;;;;;;21.17;65.00;98115.38;125896;1099;22820;-81
2021/08/08 08:20:01;;;;;;;1.30;0.83;;;;;;;21.21;64.23;98097.80;125925;1099;22941;-81
2021/08/08 08:22:43;;;;;;;1.10;0.63;;;;;;;21.30;64.22;98086.73;125835;1098;22950;-81
2021/08/08 08:25:11;;;;;;;1.25;0.60;;;;;;;21.43;63.89;98091.28;125648;1099;23043;-81
2021/08/08 08:27:39;;;;;;;0.60;0.53;;;;;;;21.54;63.03;98110.39;125962;1099;22831;-80
2021/08/08 08:30:07;;;;;;;0.90;0.70;;;;;;;21.55;63.32;98092.64;125679;1100;26015;-80
2021/08/08 08:32:35;;;;;;;0.80;0.63;;;;;;;21.64;62.50;98098.14;125684;1099;22805;-79
2021/08/08 08:35:04;;;;;;;0.70;0.70;;;;;;;21.71;62.97;98106.78;126191;1100;22829;-79
2021/08/08 08:37:32;;;;;;;0.80;0.60;;;;;;;21.94;62.32;98116.55;125689;1100;22947;-80
2021/08/08 08:40:01;;;;;;;2.83;0.70;;;;;;;22.03;61.15;98110.16;125384;1100;22828;-80
2021/08/08 08:42:30;;;;;;;1.70;0.70;;;;;;;22.06;60.34;98115.89;125608;1099;22793;-81
2021/08/08 08:44:57;;;;;;;1.08;0.60;;;;;;;22.03;60.15;98108.23;125504;1100;22783;-80
2021/08/08 08:47:26;;;;;;;1.85;0.50;;;;;;;22.03;59.94;98115.71;125660;1099;22870;-81
2021/08/08 08:49:59;;;;;;;0.50;0.40;;;;;;;22.01;60.82;98110.52;125377;1099;22792;-81
2021/08/08 08:52:28;;;;;;;1.13;0.53;;;;;;;21.98;60.57;98114.75;125610;1100;24050;-81
2021/08/08 08:54:56;;;;;;;1.65;0.58;;;;;;;22.03;61.54;98113.77;125251;1099;22851;-81
2021/08/08 08:57:23;;;;;;;0.63;0.63;;;;;;;22.19;60.86;98116.84;125524;1098;22947;-81
2021/08/08 08:59:52;;;;;;;1.00;0.60;;;;;;;22.32;61.44;98126.13;125252;1100;22816;-81
2021/08/08 09:02:19;;;;;;;1.58;0.73;;;;;;;22.49;61.10;98119.72;125736;1100;22799;-81
2021/08/08 09:04:46;;;;;;;3.28;0.70;;;;;;;22.60;59.15;98128.49;125326;1100;22899;-81
2021/08/08 09:07:14;;;;;;;0.67;0.67;;;;;;;22.62;59.64;98142.84;125522;1100;22810;-81
2021/08/08 09:09:41;;;;;;;0.80;0.50;;;;;;;22.54;58.52;98156.42;125248;1100;22803;-81
2021/08/08 09:12:09;;;;;;;0.65;0.65;;;;;;;22.56;58.79;98136.67;125401;1099;22800;-81
2021/08/08 09:14:36;;;;;;;0.53;0.53;;;;;;;22.65;59.38;98148.55;125437;1100;24470;-81
2021/08/08 09:17:04;;;;;;;2.05;0.60;;;;;;;22.70;59.00;98140.04;125482;1099;22786;-81
2021/08/08 09:19:35;;;;;;;0.60;0.50;;;;;;;22.77;58.53;98131.20;125498;1100;22844;-81
2021/08/08 09:22:05;;;;;;;0.70;0.53;;;;;;;22.84;58.89;98128.71;125202;1100;22800;-81
2021/08/08 09:24:36;;;;;;;1.30;0.75;;;;;;;22.87;57.62;98135.55;125384;1100;22786;-81
2021/08/08 09:27:11;;;;;;;0.63;0.60;;;;;;;22.91;57.74;98133.72;125446;1099;26400;-80
2021/08/08 09:29:45;;;;;;;2.20;1.00;;;;;;;23.02;57.75;98123.04;125479;1100;22828;-81
2021/08/08 09:32:14;;;;;;;1.00;0.70;;;;;;;23.08;59.19;98130.08;125410;1100;22856;-81
2021/08/08 09:34:46;;;;;;;0.90;0.65;;;;;;;23.16;57.73;98129.22;125542;1100;22809;-81
2021/08/08 09:37:21;;;;;;;0.55;0.55;;;;;;;23.12;58.05;98129.08;125408;1100;22938;-81
2021/08/08 09:39:53;;;;;;;2.15;0.80;;;;;;;23.07;57.35;98120.94;125438;1100;27170;-81
2021/08/08 09:42:24;;;;;;;1.00;0.70;;;;;;;23.20;58.17;98129.36;125443;1100;22835;-81
2021/08/08 09:45:03;;;;;;;1.00;0.80;;;;;;;23.31;57.52;98134.17;125414;1100;26274;-81
2021/08/08 09:47:39;;;;;;;0.68;0.65;;;;;;;23.34;56.58;98140.20;125503;1100;22941;-81
2021/08/08 09:50:15;;;;;;;1.33;0.73;;;;;;;23.30;56.87;98149.23;125463;1100;22931;-81
2021/08/08 09:52:51;;;;;;;1.58;0.90;;;;;;;23.34;57.27;98140.20;125426;1100;26264;-81
2021/08/08 09:55:30;;;;;;;0.93;0.70;;;;;;;23.37;57.55;98145.89;125403;1100;22826;-81
2021/08/08 09:57:59;;;;;;;1.45;0.73;;;;;;;23.51;57.57;98151.19;125445;1100;22839;-81
2021/08/08 10:00:31;;;;;;;3.25;0.80;;;;;;;23.63;56.53;98153.23;125163;1100;22957;-81
2021/08/08 10:03:02;;;;;;;3.55;0.70;;;;;;;23.83;57.83;98157.19;125394;1100;24485;-81
2021/08/08 10:05:38;;;;;;;0.70;0.47;;;;;;;23.98;54.99;98155.77;125461;1098;22880;-81
2021/08/08 10:08:10;;;;;;;0.65;0.60;;;;;;;24.06;53.86;98158.47;125479;1099;24607;-80
2021/08/08 10:10:39;;;;;;;0.90;0.70;;;;;;;24.16;54.93;98154.44;125486;1100;26274;-80
2021/08/08 10:13:29;;;;;;;0.80;0.60;;;;;;;24.34;55.49;98143.93;125529;1100;27180;-79
2021/08/08 10:16:05;;;;;;;0.93;0.75;;;;;;;24.57;55.71;98154.69;125615;1100;22672;-80
2021/08/08 10:19:01;;;;;;;0.60;0.60;;;;;;;24.69;53.43;98149.14;125415;1100;22786;-80
2021/08/08 10:21:30;;;;;;;1.80;0.73;;;;;;;24.80;52.96;98150.30;125413;1100;22866;-80
2021/08/08 10:24:04;;;;;;;1.58;0.70;;;;;;;24.91;53.71;98152.63;125498;1100;22783;-80
2021/08/08 10:26:37;;;;;;;2.38;0.88;;;;;;;25.03;51.66;98157.41;125242;1100;25976;-80
2021/08/08 10:29:07;;;;;;;1.17;0.73;;;;;;;25.13;51.50;98166.11;125391;1100;22827;-80
2021/08/08 10:31:39;;;;;;;0.97;0.50;;;;;;;25.23;51.68;98162.02;125442;1098;27217;-80
2021/08/08 10:34:06;;;;;;;0.85;0.70;;;;;;;25.43;51.35;98178.98;125384;1100;22834;-80
2021/08/08 10:36:34;;;;;;;1.15;1.05;;;;;;;25.58;52.32;98179.08;125481;1099;24523;-80
2021/08/08 10:39:10;;;;;;;1.25;0.60;;;;;;;25.65;50.30;98186.05;125759;1100;26322;-80
2021/08/08 10:41:39;;;;;;;1.05;0.78;;;;;;;25.42;50.72;98189.34;125912;1100;24318;-80
2021/08/08 10:44:17;;;;;;;1.55;0.70;;;;;;;25.43;50.56;98187.35;125844;1100;26478;-81
2021/08/08 10:46:47;;;;;;;1.20;0.75;;;;;;;25.67;50.76;98178.95;125852;1100;22860;-80
2021/08/08 10:49:28;;;;;;;1.43;0.77;;;;;;;25.97;51.00;98191.81;125728;1098;22819;-80
2021/08/08 10:52:03;;;;;;;0.65;0.60;;;;;;;26.16;49.04;98189.18;126134;1099;26350;-80
2021/08/08 10:54:44;;;;;;;0.73;0.55;;;;;;;26.23;49.08;98189.38;125572;1100;22826;-80
2021/08/08 10:57:13;;;;;;;0.75;0.68;;;;;;;25.97;49.00;98186.23;125933;1100;25636;-80
2021/08/08 10:59:54;;;;;;;0.73;0.68;;;;;;;25.65;49.46;98192.44;125742;1100;22830;-80
2021/08/08 11:02:29;;;;;;;0.68;0.63;;;;;;;25.45;49.45;98190.63;125575;1100;27352;-80
2021/08/08 11:04:57;;;;;;;1.58;0.53;;;;;;;25.61;48.79;98188.73;125824;1098;22829;-80
2021/08/08 11:07:39;;;;;;;0.87;0.70;;;;;;;25.69;49.73;98195.33;125703;1098;26421;-80
2021/08/08 11:10:06;;;;;;;1.25;0.65;;;;;;;25.85;50.10;98203.78;125707;1098;22771;-80
2021/08/08 11:12:40;;;;;;;0.70;0.40;;;;;;;25.94;49.63;98190.52;125680;1100;22941;-80
2021/08/08 11:15:10;;;;;;;0.65;0.60;;;;;;;26.22;49.31;98192.52;125785;1099;24447;-80
2021/08/08 11:17:41;;;;;;;0.50;0.50;;;;;;;26.26;48.02;98190.63;125436;1100;22792;-80
2021/08/08 11:20:10;;;;;;;0.90;0.60;;;;;;;26.11;47.74;98203.39;125478;1100;22860;-80
2021/08/08 11:22:37;;;;;;;0.60;0.60;;;;;;;25.97;47.99;98206.56;125510;1099;22882;-80
2021/08/08 11:25:06;;;;;;;0.58;0.58;;;;;;;25.93;48.79;98214.00;125761;1099;22797;-80
2021/08/08 11:27:36;;;;;;;0.50;0.50;;;;;;;25.84;48.15;98216.13;125722;1100;22755;-80
2021/08/08 11:30:07;;;;;;;2.13;0.73;;;;;;;25.68;48.23;98219.63;125701;1098;25599;-80
2021/08/08 11:32:35;;;;;;;1.58;1.00;;;;;;;25.55;48.57;98212.44;125790;1099;22798;-79
2021/08/08 11:35:04;;;;;;;1.20;0.80;;;;;;;25.57;49.76;98216.52;125449;1100;22838;-80
2021/08/08 11:37:34;;;;;;;1.33;0.60;;;;;;;25.71;49.95;98215.31;125679;1100;26315;-79